Time;durP1;ratioP1;P1;durP2;ratioP2;P2;SDS_P1;SDS_P2;PMS_P1;PMS_P2;Temp;Humidity;BMP_temperature;BMP_pressure;BME280_temperature;BME280_humidity;BME280_pressure;Samples;Min_cycle;Max_cycle;Signal;HPM_P1;HPM_P2
2021/05/28 00:00:45;;;;;;;12.15;4.68;;;8.80;99.90;;;;;;10416413;28;20121;-60
2021/05/28 00:05:47;;;;;;;11.88;4.70;;;8.70;99.90;;;;;;10415514;28;20038;-61
2021/05/28 00:10:49;;;;;;;12.52;4.57;;;8.70;99.90;;;;;;10416150;28;20053;-62
2021/05/28 00:15:50;;;;;;;10.05;4.75;;;8.70;99.90;;;;;;10415571;28;20037;-61
2021/05/28 00:20:52;;;;;;;10.50;4.97;;;8.50;99.90;;;;;;10414413;28;20049;-60
2021/05/28 00:25:54;;;;;;;9.35;5.32;;;8.60;99.90;;;;;;10415463;28;20042;-61
2021/05/28 00:30:56;;;;;;;6.60;4.00;;;8.60;99.90;;;;;;10415547;28;20049;-62
2021/05/28 00:35:58;;;;;;;14.50;5.57;;;8.60;99.90;;;;;;10415616;28;20048;-62
2021/05/28 00:41:00;;;;;;;13.85;5.90;;;8.50;99.90;;;;;;10414152;28;20049;-62
2021/05/28 00:46:03;;;;;;;11.20;6.00;;;8.40;99.90;;;;;;10414840;28;20041;-60
2021/05/28 00:51:06;;;;;;;16.00;6.30;;;8.40;99.90;;;;;;10414926;28;20080;-61
2021/05/28 00:56:08;;;;;;;18.15;8.15;;;8.40;99.90;;;;;;10415046;28;20045;-62
2021/05/28 01:01:10;;;;;;;10.73;7.25;;;8.40;99.90;;;;;;10415268;28;20053;-59
2021/05/28 01:06:12;;;;;;;9.32;5.53;;;8.40;99.90;;;;;;10414773;28;20048;-60
2021/05/28 01:11:14;;;;;;;18.10;8.50;;;8.30;99.90;;;;;;10414974;28;20071;-59
2021/05/28 01:16:17;;;;;;;14.90;6.68;;;8.30;99.90;;;;;;10414597;28;20045;-60
2021/05/28 01:21:21;;;;;;;20.45;7.65;;;8.20;99.90;;;;;;10420494;28;20060;-59
2021/05/28 01:26:23;;;;;;;11.52;8.43;;;8.00;99.90;;;;;;10421999;28;20041;-60
2021/05/28 01:31:25;;;;;;;11.90;6.00;;;8.10;99.90;;;;;;10421671;28;20048;-60
2021/05/28 01:36:27;;;;;;;14.13;7.85;;;8.00;99.90;;;;;;10420322;28;20488;-59
2021/05/28 01:41:30;;;;;;;15.27;8.93;;;8.00;99.90;;;;;;10421565;28;20481;-60
2021/05/28 01:46:32;;;;;;;12.30;8.75;;;7.90;99.90;;;;;;10421572;28;20048;-60
2021/05/28 01:51:34;;;;;;;12.90;8.43;;;7.80;99.90;;;;;;10421511;28;20053;-59
2021/05/28 01:56:36;;;;;;;14.10;7.25;;;7.80;99.90;;;;;;10421416;28;20045;-60
2021/05/28 02:01:38;;;;;;;14.57;8.60;;;7.70;99.90;;;;;;10421138;28;20367;-62
2021/05/28 02:06:40;;;;;;;15.00;9.75;;;7.80;99.90;;;;;;10420539;28;20124;-60
2021/05/28 02:11:42;;;;;;;12.23;8.00;;;7.60;99.90;;;;;;10420556;28;20053;-60
2021/05/28 02:16:44;;;;;;;16.50;9.18;;;7.80;99.90;;;;;;10420805;28;20053;-60
2021/05/28 02:21:47;;;;;;;25.88;14.88;;;7.90;99.90;;;;;;10420085;28;20048;-60
2021/05/28 02:26:51;;;;;;;16.30;10.70;;;8.00;99.90;;;;;;10418499;28;20044;-61
2021/05/28 02:31:52;;;;;;;16.33;10.90;;;8.10;99.90;;;;;;10419014;28;20049;-60
2021/05/28 02:36:54;;;;;;;24.63;14.68;;;8.20;99.90;;;;;;10419373;28;20049;-60
2021/05/28 02:41:56;;;;;;;26.55;15.23;;;8.30;99.90;;;;;;10419295;28;20052;-60
2021/05/28 02:46:58;;;;;;;47.88;18.05;;;8.30;99.90;;;;;;10417800;28;20481;-60
2021/05/28 02:52:03;;;;;;;62.92;22.33;;;8.30;99.90;;;;;;10419294;28;20045;-60
2021/05/28 02:57:05;;;;;;;32.38;20.00;;;8.40;99.90;;;;;;10418552;28;20508;-62
2021/05/28 03:02:07;;;;;;;37.25;20.52;;;8.30;99.90;;;;;;10417072;28;20044;-62
2021/05/28 03:07:09;;;;;;;86.00;25.38;;;8.40;99.90;;;;;;10418360;28;20052;-60
2021/05/28 03:12:12;;;;;;;133.90;32.95;;;8.40;99.90;;;;;;10417975;28;20496;-61
2021/05/28 03:17:13;;;;;;;59.00;23.45;;;8.40;99.90;;;;;;10417828;28;20041;-62
2021/05/28 03:22:32;;;;;;;101.90;29.33;;;8.40;99.90;;;;;;10418030;28;20059;-60
2021/05/28 03:27:35;;;;;;;86.55;26.17;;;8.50;99.90;;;;;;10417334;28;20041;-63
2021/05/28 03:32:38;;;;;;;102.63;31.17;;;8.50;99.90;;;;;;10417775;28;20042;-61
2021/05/28 03:37:40;;;;;;;36.63;22.63;;;8.50;99.90;;;;;;10417211;28;20095;-60
2021/05/28 03:42:42;;;;;;;116.00;31.50;;;8.50;99.90;;;;;;10416068;28;20375;-60
2021/05/28 03:47:44;;;;;;;78.82;33.78;;;8.50;99.90;;;;;;10416644;28;20041;-60
2021/05/28 03:52:46;;;;;;;88.80;32.47;;;8.40;99.90;;;;;;10416738;28;20057;-61
2021/05/28 03:57:48;;;;;;;76.53;30.83;;;8.50;99.90;;;;;;10416506;28;20060;-60
2021/05/28 04:02:50;;;;;;;69.45;28.65;;;8.60;99.90;;;;;;10416103;28;20038;-61
2021/05/28 04:07:52;;;;;;;58.72;30.10;;;8.50;99.90;;;;;;10415865;28;20045;-60
2021/05/28 04:12:54;;;;;;;91.40;37.15;;;8.50;99.90;;;;;;10416005;28;20088;-59
2021/05/28 04:17:56;;;;;;;57.33;32.15;;;8.60;99.90;;;;;;10415651;28;20045;-60
2021/05/28 04:22:58;;;;;;;40.50;26.65;;;8.50;99.90;;;;;;10415918;28;20049;-61
2021/05/28 04:28:00;;;;;;;48.20;27.50;;;8.50;99.90;;;;;;10415783;28;20073;-60
2021/05/28 04:33:03;;;;;;;46.10;27.85;;;8.60;99.90;;;;;;10415867;28;20397;-60
2021/05/28 04:38:05;;;;;;;41.20;25.55;;;8.60;99.90;;;;;;10415122;28;20041;-60
2021/05/28 04:43:07;;;;;;;36.88;24.90;;;8.70;99.90;;;;;;10415044;28;20489;-60
2021/05/28 04:48:09;;;;;;;48.22;27.65;;;8.60;99.90;;;;;;10414051;28;20042;-61
2021/05/28 04:53:11;;;;;;;49.42;28.73;;;8.70;99.90;;;;;;10415541;28;20056;-60
2021/05/28 04:58:13;;;;;;;36.00;23.20;;;8.60;99.90;;;;;;10422199;28;20048;-60
2021/05/28 05:03:15;;;;;;;35.05;23.08;;;8.80;99.90;;;;;;10422638;28;20490;-60
2021/05/28 05:08:17;;;;;;;48.22;26.10;;;8.80;99.90;;;;;;10422908;28;20047;-60
2021/05/28 05:13:19;;;;;;;40.67;24.67;;;8.80;99.90;;;;;;10423220;28;20049;-60
2021/05/28 05:18:21;;;;;;;31.67;19.92;;;8.80;99.90;;;;;;10422561;28;20037;-59
2021/05/28 05:23:23;;;;;;;30.17;21.05;;;8.80;99.90;;;;;;10422392;28;20060;-61
2021/05/28 05:28:24;;;;;;;34.13;23.38;;;8.80;99.90;;;;;;10422163;28;20041;-60
2021/05/28 05:33:26;;;;;;;43.63;24.02;;;8.80;99.90;;;;;;10422457;28;20124;-61
2021/05/28 05:38:28;;;;;;;32.85;21.48;;;8.70;99.90;;;;;;10421906;28;20046;-60
2021/05/28 05:43:30;;;;;;;31.48;21.58;;;8.90;99.90;;;;;;10421231;28;20052;-59
2021/05/28 05:48:32;;;;;;;34.55;22.23;;;8.90;99.90;;;;;;10421341;28;20389;-61
2021/05/28 05:53:34;;;;;;;30.77;19.83;;;8.90;99.90;;;;;;10421736;28;20394;-61
2021/05/28 05:58:36;;;;;;;38.80;23.00;;;8.90;99.90;;;;;;10421104;28;20037;-61
2021/05/28 06:03:38;;;;;;;32.13;22.60;;;8.90;99.90;;;;;;10419563;28;20053;-61
2021/05/28 06:08:40;;;;;;;32.85;18.73;;;9.00;99.90;;;;;;10419025;28;20052;-61
2021/05/28 06:13:42;;;;;;;23.17;17.23;;;9.00;99.90;;;;;;10421341;28;20045;-62
2021/05/28 06:18:44;;;;;;;33.15;19.25;;;9.00;99.90;;;;;;10419223;28;20038;-60
2021/05/28 06:23:46;;;;;;;30.85;19.45;;;9.10;99.90;;;;;;10419938;28;20041;-59
2021/05/28 06:28:48;;;;;;;25.67;18.00;;;9.00;99.90;;;;;;10419171;28;20072;-60
2021/05/28 06:33:50;;;;;;;24.25;17.90;;;9.00;99.90;;;;;;10419700;28;20053;-60
2021/05/28 06:38:52;;;;;;;19.80;15.90;;;9.20;99.90;;;;;;10419468;28;20466;-60
2021/05/28 06:43:54;;;;;;;17.27;13.68;;;9.30;99.90;;;;;;10419327;28;20049;-61
2021/05/28 06:48:58;;;;;;;22.80;17.42;;;9.50;99.90;;;;;;10418979;28;20048;-60
2021/05/28 06:54:00;;;;;;;25.55;17.05;;;9.50;99.90;;;;;;10418746;28;20056;-60
2021/05/28 06:59:03;;;;;;;21.98;15.30;;;9.60;99.90;;;;;;10419132;28;20103;-62
2021/05/28 07:04:05;;;;;;;20.27;14.93;;;9.80;99.90;;;;;;10418741;28;20481;-61
2021/05/28 07:09:08;;;;;;;22.15;15.82;;;10.20;99.90;;;;;;10418609;28;20176;-61
2021/05/28 07:14:10;;;;;;;18.98;14.13;;;10.40;99.90;;;;;;10418573;28;20496;-61
2021/05/28 07:19:12;;;;;;;16.27;13.25;;;10.60;99.90;;;;;;10418974;28;20048;-61
2021/05/28 07:24:14;;;;;;;19.85;14.35;;;10.80;99.90;;;;;;10418025;28;20048;-60
2021/05/28 07:29:16;;;;;;;16.27;14.57;;;11.10;99.90;;;;;;10417450;28;20045;-60
2021/05/28 07:34:18;;;;;;;18.95;15.77;;;11.30;99.90;;;;;;10417560;28;20077;-61
2021/05/28 07:39:20;;;;;;;16.58;14.80;;;11.40;99.90;;;;;;10417332;28;20056;-60
2021/05/28 07:44:22;;;;;;;22.00;14.95;;;11.40;99.90;;;;;;10399823;28;20053;-60
2021/05/28 07:49:25;;;;;;;18.23;14.82;;;11.50;99.90;;;;;;10416584;28;20505;-61
2021/05/28 07:54:27;;;;;;;18.48;16.48;;;11.50;99.90;;;;;;10416451;28;20045;-61
2021/05/28 07:59:30;;;;;;;19.10;15.50;;;11.80;99.90;;;;;;10416293;28;20482;-61
2021/05/28 08:04:33;;;;;;;20.58;15.50;;;11.80;99.90;;;;;;10416519;28;20056;-61
2021/05/28 08:09:35;;;;;;;16.40;14.70;;;11.80;99.90;;;;;;10416242;28;20049;-61
2021/05/28 08:14:36;;;;;;;15.85;13.57;;;12.10;99.90;;;;;;10415913;28;20041;-61
2021/05/28 08:19:38;;;;;;;13.32;12.02;;;12.40;99.90;;;;;;10415916;28;20049;-60
2021/05/28 08:24:40;;;;;;;12.90;11.40;;;12.60;99.90;;;;;;10415957;28;20478;-59
2021/05/28 08:29:44;;;;;;;13.48;11.65;;;12.80;99.90;;;;;;10415140;28;20429;-60
2021/05/28 08:34:46;;;;;;;11.75;9.32;;;13.00;99.90;;;;;;10415379;28;20052;-60
2021/05/28 08:39:48;;;;;;;12.60;10.90;;;12.70;99.90;;;;;;10415657;28;20048;-61
2021/05/28 08:44:50;;;;;;;11.27;9.90;;;13.20;99.90;;;;;;10414964;28;20063;-61
2021/05/28 08:49:54;;;;;;;10.43;9.43;;;13.30;99.90;;;;;;10413950;28;20059;-61
2021/05/28 08:54:56;;;;;;;12.52;9.57;;;13.50;99.90;;;;;;10415253;28;20045;-61
2021/05/28 08:59:58;;;;;;;10.32;8.50;;;14.00;99.90;;;;;;10415140;28;20362;-63
2021/05/28 09:05:17;;;;;;;10.40;7.80;;;14.50;99.90;;;;;;10414661;28;20367;-62
2021/05/28 09:10:40;;;;;;;8.70;7.40;;;14.70;99.90;;;;;;10415589;28;20060;-60
2021/05/28 09:16:09;;;;;;;7.93;6.93;;;15.00;99.90;;;;;;10414556;28;20042;-59
2021/05/28 09:21:31;;;;;;;8.10;7.30;;;15.10;99.90;;;;;;10415253;28;20057;-61
2021/05/28 09:26:34;;;;;;;;;;;15.30;99.90;;;;;;10414819;28;20073;-61
2021/05/28 09:31:36;;;;;;;7.72;6.97;;;15.70;99.90;;;;;;10413305;28;19917;-62
2021/05/28 09:36:40;;;;;;;8.57;7.63;;;15.90;99.90;;;;;;10414592;28;20045;-60
2021/05/28 09:41:52;;;;;;;8.88;5.75;;;16.20;99.90;;;;;;10417608;28;20041;-62
2021/05/28 09:47:18;;;;;;;6.47;5.78;;;16.20;99.90;;;;;;10421406;28;20053;-61
2021/05/28 09:52:27;;;;;;;5.57;5.20;;;16.10;99.90;;;;;;10420594;28;20057;-61
2021/05/28 09:57:50;;;;;;;9.20;7.80;;;16.70;99.90;;;;;;10420951;28;20477;-61
2021/05/28 10:03:23;;;;;;;7.03;6.32;;;17.10;99.90;;;;;;10420868;28;20053;-62
2021/05/28 10:08:27;;;;;;;6.93;6.25;;;17.20;99.90;;;;;;10421211;28;20045;-61
2021/05/28 10:13:29;;;;;;;5.90;4.93;;;17.00;99.90;;;;;;10420760;28;20049;-60
2021/05/28 10:18:31;;;;;;;4.45;4.05;;;17.30;99.90;;;;;;10419277;28;20068;-61
2021/05/28 10:23:33;;;;;;;5.22;4.20;;;17.90;99.90;;;;;;10418992;28;20073;-61
2021/05/28 10:28:38;;;;;;;4.53;3.92;;;18.20;99.90;;;;;;10420186;28;20478;-61
2021/05/28 10:33:49;;;;;;;3.78;3.40;;;18.30;99.90;;;;;;10418654;28;20053;-61
2021/05/28 10:38:52;;;;;;;4.10;2.30;;;18.70;99.90;;;;;;10419567;28;20473;-62
2021/05/28 10:44:02;;;;;;;3.58;3.28;;;18.60;99.90;;;;;;10419896;28;20038;-61
2021/05/28 10:49:07;;;;;;;5.03;4.63;;;19.20;99.90;;;;;;10419087;28;20045;-62
2021/05/28 10:54:09;;;;;;;7.13;6.43;;;19.50;99.90;;;;;;10418558;28;20055;-62
2021/05/28 10:59:18;;;;;;;7.05;6.28;;;19.30;99.90;;;;;;10419013;28;20041;-61
2021/05/28 11:04:47;;;;;;;4.75;4.32;;;19.30;99.90;;;;;;10419173;28;20045;-62
2021/05/28 11:09:50;;;;;;;6.22;4.97;;;20.40;99.90;;;;;;10418306;28;20045;-62
2021/05/28 11:15:13;;;;;;;6.28;5.78;;;19.90;99.90;;;;;;10417934;28;20057;-61
2021/05/28 11:20:32;;;;;;;6.20;5.43;;;20.70;99.90;;;;;;10417935;28;20072;-62
2021/05/28 11:25:54;;;;;;;7.22;3.90;;;21.30;99.90;;;;;;10417283;28;20056;-62
2021/05/28 11:31:00;;;;;;;3.03;2.83;;;20.60;98.70;;;;;;10417510;28;20393;-61
2021/05/28 11:36:21;;;;;;;6.55;3.15;;;20.90;99.90;;;;;;10417555;28;20045;-62
2021/05/28 11:41:46;;;;;;;2.80;2.57;;;21.10;99.90;;;;;;10416316;28;20041;-61
2021/05/28 11:46:51;;;;;;;2.22;1.75;;;20.90;98.30;;;;;;10417238;28;20480;-62
2021/05/28 11:52:06;;;;;;;2.03;1.92;;;21.40;96.60;;;;;;10416676;28;20076;-62
2021/05/28 11:57:13;;;;;;;3.00;2.30;;;21.50;95.60;;;;;;10417131;28;20041;-62
2021/05/28 12:02:43;;;;;;;2.20;2.00;;;21.30;95.70;;;;;;10416055;28;20596;-61
2021/05/28 12:07:48;;;;;;;2.10;1.92;;;21.70;95.60;;;;;;10416588;28;20076;-62
2021/05/28 12:13:01;;;;;;;3.25;1.98;;;21.60;97.20;;;;;;10416098;28;20053;-62
2021/05/28 12:18:17;;;;;;;2.03;1.67;;;21.70;93.80;;;;;;10415883;28;20389;-62
2021/05/28 12:23:26;;;;;;;2.05;1.95;;;22.20;91.10;;;;;;10415742;28;20132;-61
2021/05/28 12:28:38;;;;;;;2.13;2.03;;;21.70;91.90;;;;;;10415968;28;20045;-62
2021/05/28 12:33:47;;;;;;;3.15;2.25;;;21.60;91.80;;;;;;10415997;28;20509;-62
2021/05/28 12:38:51;;;;;;;2.50;2.17;;;21.90;91.10;;;;;;10415661;28;20041;-62
2021/05/28 12:43:54;;;;;;;2.22;1.92;;;22.40;94.80;;;;;;10415316;28;20048;-62
2021/05/28 12:48:59;;;;;;;3.88;2.17;;;22.70;90.10;;;;;;10415703;28;20046;-62
2021/05/28 12:54:33;;;;;;;2.95;2.45;;;22.90;91.00;;;;;;10414898;28;20053;-62
2021/05/28 12:59:39;;;;;;;1.85;1.73;;;22.20;78.00;;;;;;10415583;28;20049;-61
2021/05/28 13:04:55;;;;;;;4.40;2.42;;;22.50;92.50;;;;;;10413887;28;20057;-61
2021/05/28 13:10:17;;;;;;;1.67;1.58;;;22.40;72.60;;;;;;10415334;28;20045;-62
2021/05/28 13:15:26;;;;;;;4.50;3.10;;;22.50;89.60;;;;;;10418612;28;20477;-61
2021/05/28 13:20:29;;;;;;;3.03;2.55;;;22.20;67.90;;;;;;10422544;28;20053;-63
2021/05/28 13:25:38;;;;;;;3.13;2.83;;;22.00;90.80;;;;;;10422218;28;20045;-62
2021/05/28 13:30:56;;;;;;;2.35;2.00;;;22.40;87.60;;;;;;10422835;28;20045;-62
2021/05/28 13:36:17;;;;;;;3.20;2.97;;;22.60;83.80;;;;;;10422544;28;20421;-62
2021/05/28 13:41:39;;;;;;;6.35;2.92;;;22.20;78.50;;;;;;10421820;28;20037;-62
2021/05/28 13:46:41;;;;;;;3.67;3.38;;;22.30;87.80;;;;;;10421865;28;20492;-62
2021/05/28 13:51:44;;;;;;;2.60;2.40;;;22.30;75.90;;;;;;10421580;28;20103;-62
2021/05/28 13:56:46;;;;;;;4.35;3.15;;;22.60;90.40;;;;;;10421186;28;20056;-62
2021/05/28 14:01:48;;;;;;;3.97;3.53;;;23.00;80.40;;;;;;10421622;28;20042;-62
2021/05/28 14:06:50;;;;;;;4.22;3.83;;;22.10;83.50;;;;;;10420689;28;20500;-62
2021/05/28 14:11:52;;;;;;;4.57;3.83;;;21.70;77.30;;;;;;10421049;28;20045;-62
2021/05/28 14:16:54;;;;;;;3.80;3.40;;;22.10;77.90;;;;;;10420528;28;20080;-61
2021/05/28 14:21:56;;;;;;;4.40;4.00;;;22.20;80.20;;;;;;10420480;28;20052;-62
2021/05/28 14:26:58;;;;;;;3.83;3.38;;;22.30;90.60;;;;;;10418633;28;20045;-62
2021/05/28 14:32:00;;;;;;;3.10;2.78;;;22.70;90.60;;;;;;10418758;28;20053;-62
2021/05/28 14:37:03;;;;;;;5.70;2.17;;;22.60;80.60;;;;;;10419558;28;20402;-62
2021/05/28 14:42:05;;;;;;;2.25;2.05;;;22.90;85.90;;;;;;10419361;28;20052;-62
2021/05/28 14:47:07;;;;;;;3.42;1.70;;;22.60;76.70;;;;;;10417958;28;20499;-62
2021/05/28 14:52:09;;;;;;;4.22;3.00;;;22.80;83.50;;;;;;10419247;28;20049;-62
2021/05/28 14:57:11;;;;;;;2.50;2.30;;;21.90;86.80;;;;;;10419405;28;20496;-62
2021/05/28 15:02:13;;;;;;;3.47;1.92;;;22.40;81.60;;;;;;10417299;28;20413;-62
2021/05/28 15:07:16;;;;;;;2.97;2.25;;;22.60;91.70;;;;;;10418527;28;20124;-62
2021/05/28 15:12:18;;;;;;;3.42;2.95;;;22.60;87.30;;;;;;10418544;28;20049;-62
2021/05/28 15:17:20;;;;;;;3.20;2.90;;;22.00;72.60;;;;;;10417979;28;20057;-62
2021/05/28 15:22:21;;;;;;;3.20;2.90;;;21.60;72.60;;;;;;10417831;28;20057;-62
2021/05/28 15:27:23;;;;;;;2.58;2.38;;;21.80;86.30;;;;;;10418111;28;20042;-62
2021/05/28 15:32:25;;;;;;;3.40;2.83;;;21.90;81.40;;;;;;10417492;28;20052;-62
2021/05/28 15:37:27;;;;;;;3.08;2.75;;;21.20;74.90;;;;;;10416457;28;20045;-62
2021/05/28 15:42:30;;;;;;;1.30;1.20;;;21.50;79.10;;;;;;10417195;28;20064;-62
2021/05/28 15:47:32;;;;;;;1.83;1.73;;;21.90;80.20;;;;;;10417015;28;20037;-61
2021/05/28 15:52:34;;;;;;;2.45;1.13;;;21.80;74.80;;;;;;10416998;28;20060;-62
2021/05/28 15:57:37;;;;;;;4.03;1.88;;;21.90;79.00;;;;;;10416555;28;20388;-62
2021/05/28 16:02:39;;;;;;;1.95;1.73;;;21.80;72.40;;;;;;10416202;28;20389;-62
2021/05/28 16:07:43;;;;;;;2.90;1.30;;;21.70;72.30;;;;;;10416298;28;20056;-62
2021/05/28 16:12:45;;;;;;;2.28;2.03;;;21.40;72.00;;;;;;10416201;28;20053;-61
2021/05/28 16:17:49;;;;;;;1.83;1.63;;;21.10;73.10;;;;;;10416322;28;20051;-62
2021/05/28 16:22:52;;;;;;;2.00;1.25;;;21.60;85.10;;;;;;10415691;28;20052;-62
2021/05/28 16:27:59;;;;;;;2.47;1.80;;;21.60;88.10;;;;;;10416235;28;20038;-61
2021/05/28 16:33:02;;;;;;;3.20;2.15;;;21.70;75.70;;;;;;10415468;28;20056;-61
2021/05/28 16:38:05;;;;;;;2.05;1.85;;;21.40;79.70;;;;;;10415276;28;20045;-61
2021/05/28 16:43:07;;;;;;;2.47;1.95;;;21.00;73.80;;;;;;10415189;28;20053;-61
2021/05/28 16:48:09;;;;;;;1.83;1.73;;;20.90;75.90;;;;;;10415469;28;20401;-62
2021/05/28 16:53:11;;;;;;;2.28;2.08;;;20.60;70.80;;;;;;10422673;28;20057;-61
2021/05/28 16:58:13;;;;;;;3.53;2.00;;;20.50;80.40;;;;;;10423545;28;20037;-62
2021/05/28 17:03:16;;;;;;;1.85;1.75;;;20.60;83.50;;;;;;10422886;28;20501;-62
2021/05/28 17:08:19;;;;;;;1.63;1.50;;;20.80;72.00;;;;;;10422035;28;20045;-62
2021/05/28 17:13:20;;;;;;;3.33;1.60;;;20.80;82.20;;;;;;10423011;28;20053;-61
2021/05/28 17:18:23;;;;;;;2.55;1.50;;;20.70;71.80;;;;;;10422592;28;20045;-61
2021/05/28 17:23:26;;;;;;;2.53;2.33;;;20.50;79.30;;;;;;10421812;28;20052;-61
2021/05/28 17:28:47;;;;;;;2.38;1.75;;;20.10;74.10;;;;;;10422605;28;20041;-61
2021/05/28 17:33:49;;;;;;;3.03;1.45;;;20.30;82.80;;;;;;10422737;28;20053;-62
2021/05/28 17:38:51;;;;;;;1.92;1.50;;;20.00;81.40;;;;;;10420811;28;20045;-62
2021/05/28 17:43:53;;;;;;;3.03;1.42;;;19.80;82.60;;;;;;10421720;28;20045;-62
2021/05/28 17:48:55;;;;;;;1.60;1.50;;;19.90;84.50;;;;;;10421649;28;20050;-62
2021/05/28 17:53:58;;;;;;;1.58;1.20;;;19.90;82.20;;;;;;10421138;28;20060;-61
2021/05/28 17:59:00;;;;;;;4.38;1.60;;;19.70;89.90;;;;;;10421668;28;20045;-62
2021/05/28 18:04:02;;;;;;;4.53;1.70;;;19.60;88.70;;;;;;10418949;28;20061;-62
2021/05/28 18:09:05;;;;;;;2.92;1.35;;;19.40;91.50;;;;;;10420874;28;20042;-61
2021/05/28 18:14:06;;;;;;;1.60;1.50;;;19.40;92.60;;;;;;10420464;28;20052;-61
2021/05/28 18:19:08;;;;;;;3.22;2.17;;;19.30;92.60;;;;;;10420498;28;20052;-62
2021/05/28 18:24:11;;;;;;;3.63;1.40;;;19.20;92.50;;;;;;10419248;28;20046;-62
2021/05/28 18:29:13;;;;;;;3.22;1.92;;;19.10;94.50;;;;;;10420120;28;20042;-61
2021/05/28 18:34:15;;;;;;;4.72;1.77;;;19.00;94.70;;;;;;10419730;28;20056;-61
2021/05/28 18:39:17;;;;;;;2.83;1.90;;;18.90;95.50;;;;;;10419641;28;20405;-61
2021/05/28 18:44:20;;;;;;;2.03;1.77;;;18.70;95.30;;;;;;10419062;28;20045;-61
2021/05/28 18:49:22;;;;;;;6.88;4.53;;;18.60;94.90;;;;;;10419726;28;20059;-61
2021/05/28 18:54:24;;;;;;;6.20;4.40;;;18.50;95.60;;;;;;10419060;28;20049;-61
2021/05/28 18:59:29;;;;;;;5.10;3.40;;;18.30;96.40;;;;;;10419417;28;20041;-61
2021/05/28 19:04:31;;;;;;;3.10;2.40;;;18.30;97.00;;;;;;10418668;28;20057;-60
2021/05/28 19:09:33;;;;;;;2.55;2.35;;;18.10;97.30;;;;;;10418935;28;20072;-61
2021/05/28 19:14:40;;;;;;;6.18;3.20;;;17.90;97.40;;;;;;10417907;28;20049;-61
2021/05/28 19:19:42;;;;;;;5.05;3.08;;;17.80;97.70;;;;;;10418685;28;20049;-61
2021/05/28 19:24:44;;;;;;;7.47;3.47;;;17.50;98.00;;;;;;10416497;28;20400;-61
2021/05/28 19:29:47;;;;;;;3.28;2.10;;;17.40;98.50;;;;;;10417591;28;20048;-61
2021/05/28 19:34:50;;;;;;;1.92;1.77;;;17.30;98.50;;;;;;10417244;28;20386;-62
2021/05/28 19:39:52;;;;;;;2.42;1.65;;;17.20;98.40;;;;;;10416422;28;20053;-61
2021/05/28 19:44:54;;;;;;;4.15;1.80;;;17.00;99.20;;;;;;10416826;28;20393;-61
2021/05/28 19:49:56;;;;;;;5.10;2.03;;;16.90;99.20;;;;;;10417064;28;20041;-60
2021/05/28 20:00:22;;;;;;;3.53;1.90;;;16.70;99.50;;;;;;10417004;28;20060;-61
2021/05/28 20:05:25;;;;;;;2.80;1.60;;;16.60;99.20;;;;;;10416014;28;20374;-61
2021/05/28 20:10:35;;;;;;;1.83;1.73;;;16.40;99.60;;;;;;10416835;28;20042;-60
2021/05/28 20:15:39;;;;;;;4.50;1.80;;;16.20;99.90;;;;;;10416334;28;20049;-61
2021/05/28 20:20:41;;;;;;;2.85;2.05;;;16.00;99.90;;;;;;10415989;28;20050;-61
2021/05/28 20:25:43;;;;;;;5.28;1.85;;;15.90;99.90;;;;;;10414984;28;20470;-61
2021/05/28 20:30:45;;;;;;;4.00;2.88;;;15.70;99.90;;;;;;10415799;28;20045;-61
2021/05/28 20:35:47;;;;;;;4.63;2.30;;;15.60;99.90;;;;;;10415520;28;20064;-61
2021/05/28 20:40:49;;;;;;;4.57;3.10;;;15.50;99.90;;;;;;10415608;28;20397;-60
2021/05/28 20:45:52;;;;;;;4.78;2.65;;;15.50;99.90;;;;;;10415170;28;20050;-60
2021/05/28 20:51:02;;;;;;;5.85;2.30;;;15.30;99.90;;;;;;10414604;28;20045;-61
2021/05/28 20:56:11;;;;;;;5.95;2.60;;;15.10;99.90;;;;;;10413489;28;20053;-60
2021/05/28 21:01:14;;;;;;;3.97;2.85;;;15.10;99.90;;;;;;10415472;28;20037;-60
2021/05/28 21:06:16;;;;;;;6.57;2.65;;;15.00;99.90;;;;;;10413748;28;20044;-60
2021/05/28 21:11:18;;;;;;;5.22;3.10;;;14.90;99.90;;;;;;10415514;28;20048;-60
2021/05/28 21:16:20;;;;;;;2.60;2.40;;;14.80;99.90;;;;;;10414797;28;20051;-61
2021/05/28 21:21:24;;;;;;;2.90;1.90;;;14.60;99.90;;;;;;10415207;28;20037;-61
2021/05/28 21:26:27;;;;;;;2.90;2.13;;;14.50;99.90;;;;;;10414308;28;20049;-60
2021/05/28 21:31:29;;;;;;;3.45;2.58;;;14.40;99.90;;;;;;10414288;28;20393;-61
2021/05/28 21:36:31;;;;;;;6.13;2.10;;;14.40;99.90;;;;;;10418127;28;20061;-60
2021/05/28 21:41:33;;;;;;;2.20;2.00;;;14.30;99.90;;;;;;10421669;28;20382;-61
2021/05/28 21:46:36;;;;;;;5.40;3.25;;;14.20;99.90;;;;;;10421822;28;20045;-61
2021/05/28 21:51:38;;;;;;;6.50;2.95;;;14.10;99.90;;;;;;10421560;28;20053;-61
2021/05/28 21:56:41;;;;;;;3.20;2.45;;;14.00;99.90;;;;;;10421557;28;20049;-60
2021/05/28 22:01:43;;;;;;;2.65;2.45;;;13.80;99.90;;;;;;10421154;28;20046;-61
2021/05/28 22:06:45;;;;;;;3.88;2.70;;;13.60;99.90;;;;;;10421041;28;20049;-60
2021/05/28 22:11:47;;;;;;;2.60;2.38;;;13.70;99.90;;;;;;10419852;28;20056;-60
2021/05/28 22:16:50;;;;;;;3.88;2.20;;;13.60;99.90;;;;;;10420587;28;20079;-61
2021/05/28 22:21:52;;;;;;;2.40;2.20;;;13.40;99.90;;;;;;10420464;28;20045;-60
2021/05/28 22:27:02;;;;;;;4.78;2.50;;;13.50;99.90;;;;;;10420036;28;20493;-60
2021/05/28 22:37:27;;;;;;;5.95;3.20;;;13.30;99.90;;;;;;10419958;28;20094;-61
2021/05/28 22:42:30;;;;;;;3.13;2.92;;;13.30;99.90;;;;;;10420252;28;20060;-60
2021/05/28 22:47:32;;;;;;;4.25;2.63;;;13.10;99.90;;;;;;10418683;28;20049;-60
2021/05/28 22:52:34;;;;;;;5.45;3.28;;;13.10;99.90;;;;;;10418396;28;20057;-61
2021/05/28 22:57:36;;;;;;;5.35;2.80;;;13.00;99.90;;;;;;10418794;28;20053;-60
2021/05/28 23:02:38;;;;;;;3.33;3.03;;;13.00;99.90;;;;;;10418891;28;20080;-60
2021/05/28 23:07:42;;;;;;;3.17;2.78;;;12.90;99.90;;;;;;10418710;28;20095;-60
2021/05/28 23:12:45;;;;;;;5.22;3.08;;;12.80;99.90;;;;;;10418456;28;20048;-60
2021/05/28 23:17:48;;;;;;;4.20;2.78;;;12.80;99.90;;;;;;10418112;28;20046;-60
2021/05/28 23:22:50;;;;;;;6.13;3.38;;;12.70;99.90;;;;;;10417101;28;20474;-60
2021/05/28 23:27:52;;;;;;;3.53;2.90;;;12.50;99.90;;;;;;10417819;28;20049;-60
2021/05/28 23:32:54;;;;;;;6.50;2.78;;;12.60;99.90;;;;;;10416272;28;20496;-61
2021/05/28 23:37:56;;;;;;;6.53;3.80;;;12.50;99.90;;;;;;10417036;28;20071;-61
2021/05/28 23:42:59;;;;;;;5.32;3.67;;;12.50;99.90;;;;;;10417202;28;20042;-60
2021/05/28 23:48:01;;;;;;;5.32;3.83;;;12.40;99.90;;;;;;10416891;28;20470;-60
2021/05/28 23:53:03;;;;;;;5.53;4.10;;;12.30;99.90;;;;;;10416652;28;20412;-60
2021/05/28 23:58:04;;;;;;;7.20;3.50;;;12.30;99.90;;;;;;10416085;28;20068;-60
